sensor_id;sensor_type;location;lat;lon;timestamp;P1;durP1;ratioP1;P2;durP2;ratioP2
83801;SDS011;73818;51.646;15.140;2024-02-21T00:04:01;5;;;1;;
83801;SDS011;73818;51.646;15.140;2024-02-21T00:10:12;5;;;2;;
83801;SDS011;73818;51.646;15.140;2024-02-21T00:16:24;5;;;2;;
83801;SDS011;73818;51.646;15.140;2024-02-21T00:22:36;4;;;1;;
83801;SDS011;73818;51.646;15.140;2024-02-21T00:28:48;4;;;1;;
83801;SDS011;73818;51.646;15.140;2024-02-21T00:35:00;4;;;1;;
83801;SDS011;73818;51.646;15.140;2024-02-21T00:41:11;4;;;1;;
83801;SDS011;73818;51.646;15.140;2024-02-21T00:47:23;4;;;1;;
83801;SDS011;73818;51.646;15.140;2024-02-21T00:53:34;3;;;1;;
83801;SDS011;73818;51.646;15.140;2024-02-21T00:59:45;4;;;1;;
83801;SDS011;73818;51.646;15.140;2024-02-21T01:05:56;4;;;1;;
83801;SDS011;73818;51.646;15.140;2024-02-21T01:12:08;5;;;1;;
83801;SDS011;73818;51.646;15.140;2024-02-21T01:18:19;4;;;1;;
83801;SDS011;73818;51.646;15.140;2024-02-21T01:24:31;4;;;1;;
83801;SDS011;73818;51.646;15.140;2024-02-21T01:30:42;3;;;1;;
83801;SDS011;73818;51.646;15.140;2024-02-21T01:36:54;4;;;1;;
83801;SDS011;73818;51.646;15.140;2024-02-21T01:43:14;3;;;1;;
83801;SDS011;73818;51.646;15.140;2024-02-21T01:49:17;5;;;1;;
83801;SDS011;73818;51.646;15.140;2024-02-21T01:55:28;4;;;1;;
83801;SDS011;73818;51.646;15.140;2024-02-21T02:01:39;4;;;1;;
83801;SDS011;73818;51.646;15.140;2024-02-21T02:07:52;4;;;1;;
83801;SDS011;73818;51.646;15.140;2024-02-21T02:14:03;4;;;1;;
83801;SDS011;73818;51.646;15.140;2024-02-21T02:20:15;4;;;1;;
83801;SDS011;73818;51.646;15.140;2024-02-21T02:26:26;4;;;1;;
83801;SDS011;73818;51.646;15.140;2024-02-21T02:32:38;4;;;1;;
83801;SDS011;73818;51.646;15.140;2024-02-21T02:38:49;3;;;1;;
83801;SDS011;73818;51.646;15.140;2024-02-21T02:45:01;4;;;1;;
83801;SDS011;73818;51.646;15.140;2024-02-21T02:51:12;3;;;1;;
83801;SDS011;73818;51.646;15.140;2024-02-21T02:57:24;4;;;1;;
83801;SDS011;73818;51.646;15.140;2024-02-21T03:03:35;4;;;1;;
83801;SDS011;73818;51.646;15.140;2024-02-21T03:09:48;3;;;1;;
83801;SDS011;73818;51.646;15.140;2024-02-21T03:16:00;3;;;1;;
83801;SDS011;73818;51.646;15.140;2024-02-21T03:22:11;3;;;1;;
83801;SDS011;73818;51.646;15.140;2024-02-21T03:28:22;4;;;1;;
83801;SDS011;73818;51.646;15.140;2024-02-21T03:34:34;4;;;1;;
83801;SDS011;73818;51.646;15.140;2024-02-21T03:40:45;3;;;1;;
83801;SDS011;73818;51.646;15.140;2024-02-21T03:46:56;4;;;1;;
83801;SDS011;73818;51.646;15.140;2024-02-21T03:53:08;3;;;1;;
83801;SDS011;73818;51.646;15.140;2024-02-21T03:59:20;3;;;1;;
83801;SDS011;73818;51.646;15.140;2024-02-21T04:05:31;4;;;1;;
83801;SDS011;73818;51.646;15.140;2024-02-21T04:11:43;3;;;1;;
83801;SDS011;73818;51.646;15.140;2024-02-21T04:17:55;3;;;1;;
83801;SDS011;73818;51.646;15.140;2024-02-21T04:24:06;3;;;1;;
83801;SDS011;73818;51.646;15.140;2024-02-21T04:30:18;3;;;1;;
83801;SDS011;73818;51.646;15.140;2024-02-21T04:36:29;3;;;1;;
83801;SDS011;73818;51.646;15.140;2024-02-21T04:42:41;3;;;1;;
83801;SDS011;73818;51.646;15.140;2024-02-21T04:48:52;3;;;1;;
83801;SDS011;73818;51.646;15.140;2024-02-21T04:55:04;3;;;1;;
83801;SDS011;73818;51.646;15.140;2024-02-21T05:01:16;2;;;1;;
83801;SDS011;73818;51.646;15.140;2024-02-21T05:07:27;3;;;1;;
83801;SDS011;73818;51.646;15.140;2024-02-21T05:13:39;3;;;1;;
83801;SDS011;73818;51.646;15.140;2024-02-21T05:19:50;3;;;1;;
83801;SDS011;73818;51.646;15.140;2024-02-21T05:26:02;3;;;1;;
83801;SDS011;73818;51.646;15.140;2024-02-21T05:32:14;3;;;1;;
83801;SDS011;73818;51.646;15.140;2024-02-21T05:38:25;3;;;1;;
83801;SDS011;73818;51.646;15.140;2024-02-21T05:44:36;2;;;1;;
83801;SDS011;73818;51.646;15.140;2024-02-21T05:50:48;126;;;25;;
83801;SDS011;73818;51.646;15.140;2024-02-21T05:56:59;76;;;17;;
83801;SDS011;73818;51.646;15.140;2024-02-21T06:03:11;49;;;12;;
83801;SDS011;73818;51.646;15.140;2024-02-21T06:09:22;32;;;8;;
83801;SDS011;73818;51.646;15.140;2024-02-21T06:15:33;22;;;6;;
83801;SDS011;73818;51.646;15.140;2024-02-21T06:21:45;17;;;5;;
83801;SDS011;73818;51.646;15.140;2024-02-21T06:27:56;12;;;3;;
83801;SDS011;73818;51.646;15.140;2024-02-21T06:34:08;10;;;3;;
83801;SDS011;73818;51.646;15.140;2024-02-21T06:40:21;7;;;2;;
83801;SDS011;73818;51.646;15.140;2024-02-21T06:46:32;8;;;2;;
83801;SDS011;73818;51.646;15.140;2024-02-21T06:52:44;8;;;2;;
83801;SDS011;73818;51.646;15.140;2024-02-21T06:58:56;8;;;2;;
83801;SDS011;73818;51.646;15.140;2024-02-21T07:05:07;7;;;2;;
83801;SDS011;73818;51.646;15.140;2024-02-21T07:11:19;7;;;2;;
83801;SDS011;73818;51.646;15.140;2024-02-21T07:17:31;7;;;2;;
83801;SDS011;73818;51.646;15.140;2024-02-21T07:23:42;7;;;2;;
83801;SDS011;73818;51.646;15.140;2024-02-21T07:29:53;10;;;3;;
83801;SDS011;73818;51.646;15.140;2024-02-21T07:36:07;37;;;8;;
83801;SDS011;73818;51.646;15.140;2024-02-21T07:42:17;40;;;10;;
83801;SDS011;73818;51.646;15.140;2024-02-21T07:48:29;40;;;9;;
83801;SDS011;73818;51.646;15.140;2024-02-21T07:54:40;36;;;9;;
83801;SDS011;73818;51.646;15.140;2024-02-21T08:00:52;35;;;8;;
83801;SDS011;73818;51.646;15.140;2024-02-21T08:07:04;36;;;8;;
83801;SDS011;73818;51.646;15.140;2024-02-21T08:13:15;28;;;7;;
83801;SDS011;73818;51.646;15.140;2024-02-21T08:19:27;27;;;7;;
83801;SDS011;73818;51.646;15.140;2024-02-21T08:25:39;26;;;7;;
83801;SDS011;73818;51.646;15.140;2024-02-21T08:31:50;25;;;6;;
83801;SDS011;73818;51.646;15.140;2024-02-21T08:38:02;22;;;6;;
83801;SDS011;73818;51.646;15.140;2024-02-21T08:44:14;21;;;6;;
83801;SDS011;73818;51.646;15.140;2024-02-21T08:50:25;22;;;6;;
83801;SDS011;73818;51.646;15.140;2024-02-21T08:56:37;20;;;5;;
83801;SDS011;73818;51.646;15.140;2024-02-21T09:02:48;19;;;5;;
83801;SDS011;73818;51.646;15.140;2024-02-21T09:08:59;18;;;5;;
83801;SDS011;73818;51.646;15.140;2024-02-21T09:15:11;17;;;5;;
83801;SDS011;73818;51.646;15.140;2024-02-21T09:21:22;18;;;5;;
83801;SDS011;73818;51.646;15.140;2024-02-21T09:27:34;18;;;5;;
83801;SDS011;73818;51.646;15.140;2024-02-21T09:33:46;16;;;4;;
83801;SDS011;73818;51.646;15.140;2024-02-21T09:39:57;15;;;4;;
83801;SDS011;73818;51.646;15.140;2024-02-21T09:46:11;14;;;4;;
83801;SDS011;73818;51.646;15.140;2024-02-21T09:52:21;15;;;4;;
83801;SDS011;73818;51.646;15.140;2024-02-21T09:58:33;14;;;4;;
83801;SDS011;73818;51.646;15.140;2024-02-21T10:04:44;14;;;4;;
83801;SDS011;73818;51.646;15.140;2024-02-21T10:10:58;13;;;4;;
83801;SDS011;73818;51.646;15.140;2024-02-21T10:17:08;12;;;4;;
83801;SDS011;73818;51.646;15.140;2024-02-21T10:23:19;13;;;4;;
83801;SDS011;73818;51.646;15.140;2024-02-21T10:29:31;12;;;3;;
83801;SDS011;73818;51.646;15.140;2024-02-21T10:35:42;11;;;3;;
83801;SDS011;73818;51.646;15.140;2024-02-21T10:41:54;11;;;3;;
83801;SDS011;73818;51.646;15.140;2024-02-21T11:00:28;9;;;3;;
83801;SDS011;73818;51.646;15.140;2024-02-21T11:06:39;10;;;3;;
83801;SDS011;73818;51.646;15.140;2024-02-21T11:12:54;8;;;2;;
83801;SDS011;73818;51.646;15.140;2024-02-21T11:19:06;8;;;3;;
83801;SDS011;73818;51.646;15.140;2024-02-21T11:25:21;8;;;2;;
83801;SDS011;73818;51.646;15.140;2024-02-21T11:31:26;7;;;2;;
83801;SDS011;73818;51.646;15.140;2024-02-21T11:37:38;7;;;2;;
83801;SDS011;73818;51.646;15.140;2024-02-21T11:43:49;8;;;2;;
83801;SDS011;73818;51.646;15.140;2024-02-21T11:50:00;8;;;2;;
83801;SDS011;73818;51.646;15.140;2024-02-21T11:56:13;7;;;2;;
83801;SDS011;73818;51.646;15.140;2024-02-21T12:02:24;7;;;2;;
83801;SDS011;73818;51.646;15.140;2024-02-21T12:14:53;6;;;2;;
83801;SDS011;73818;51.646;15.140;2024-02-21T12:20:59;6;;;2;;
83801;SDS011;73818;51.646;15.140;2024-02-21T12:27:11;6;;;2;;
83801;SDS011;73818;51.646;15.140;2024-02-21T12:33:22;7;;;2;;
83801;SDS011;73818;51.646;15.140;2024-02-21T12:39:34;6;;;2;;
83801;SDS011;73818;51.646;15.140;2024-02-21T12:45:45;5;;;2;;
83801;SDS011;73818;51.646;15.140;2024-02-21T12:51:58;5;;;2;;
83801;SDS011;73818;51.646;15.140;2024-02-21T12:58:09;6;;;2;;
83801;SDS011;73818;51.646;15.140;2024-02-21T13:04:20;5;;;2;;
83801;SDS011;73818;51.646;15.140;2024-02-21T13:10:32;5;;;2;;
83801;SDS011;73818;51.646;15.140;2024-02-21T13:16:44;4;;;1;;
83801;SDS011;73818;51.646;15.140;2024-02-21T13:22:56;5;;;2;;
83801;SDS011;73818;51.646;15.140;2024-02-21T13:29:09;6;;;2;;
83801;SDS011;73818;51.646;15.140;2024-02-21T13:35:20;5;;;2;;
83801;SDS011;73818;51.646;15.140;2024-02-21T13:41:32;4;;;2;;
83801;SDS011;73818;51.646;15.140;2024-02-21T13:47:44;5;;;2;;
83801;SDS011;73818;51.646;15.140;2024-02-21T13:53:56;5;;;1;;
83801;SDS011;73818;51.646;15.140;2024-02-21T14:00:07;4;;;2;;
83801;SDS011;73818;51.646;15.140;2024-02-21T14:06:19;4;;;2;;
83801;SDS011;73818;51.646;15.140;2024-02-21T14:12:30;4;;;1;;
83801;SDS011;73818;51.646;15.140;2024-02-21T14:18:42;4;;;1;;
83801;SDS011;73818;51.646;15.140;2024-02-21T14:24:53;4;;;2;;
83801;SDS011;73818;51.646;15.140;2024-02-21T14:31:05;4;;;1;;
83801;SDS011;73818;51.646;15.140;2024-02-21T14:37:17;4;;;1;;
83801;SDS011;73818;51.646;15.140;2024-02-21T14:43:28;5;;;2;;
83801;SDS011;73818;51.646;15.140;2024-02-21T14:49:40;4;;;2;;
83801;SDS011;73818;51.646;15.140;2024-02-21T14:55:52;4;;;1;;
83801;SDS011;73818;51.646;15.140;2024-02-21T15:02:04;3;;;1;;
83801;SDS011;73818;51.646;15.140;2024-02-21T15:08:15;5;;;1;;
83801;SDS011;73818;51.646;15.140;2024-02-21T15:14:27;4;;;1;;
83801;SDS011;73818;51.646;15.140;2024-02-21T15:20:39;3;;;1;;
83801;SDS011;73818;51.646;15.140;2024-02-21T15:26:50;3;;;1;;
83801;SDS011;73818;51.646;15.140;2024-02-21T15:33:04;3;;;1;;
83801;SDS011;73818;51.646;15.140;2024-02-21T15:39:13;3;;;1;;
83801;SDS011;73818;51.646;15.140;2024-02-21T15:45:25;3;;;1;;
83801;SDS011;73818;51.646;15.140;2024-02-21T15:51:36;3;;;1;;
83801;SDS011;73818;51.646;15.140;2024-02-21T15:57:48;4;;;1;;
83801;SDS011;73818;51.646;15.140;2024-02-21T16:03:59;4;;;1;;
83801;SDS011;73818;51.646;15.140;2024-02-21T16:10:12;3;;;1;;
83801;SDS011;73818;51.646;15.140;2024-02-21T16:16:22;3;;;1;;
83801;SDS011;73818;51.646;15.140;2024-02-21T16:22:34;3;;;1;;
83801;SDS011;73818;51.646;15.140;2024-02-21T16:28:45;3;;;1;;
83801;SDS011;73818;51.646;15.140;2024-02-21T16:34:57;3;;;1;;
83801;SDS011;73818;51.646;15.140;2024-02-21T16:41:09;3;;;1;;
83801;SDS011;73818;51.646;15.140;2024-02-21T16:47:21;3;;;1;;
83801;SDS011;73818;51.646;15.140;2024-02-21T16:53:32;3;;;1;;
83801;SDS011;73818;51.646;15.140;2024-02-21T16:59:44;3;;;1;;
83801;SDS011;73818;51.646;15.140;2024-02-21T17:05:57;3;;;1;;
83801;SDS011;73818;51.646;15.140;2024-02-21T17:12:08;3;;;1;;
83801;SDS011;73818;51.646;15.140;2024-02-21T17:18:20;3;;;1;;
83801;SDS011;73818;51.646;15.140;2024-02-21T17:24:32;3;;;1;;
83801;SDS011;73818;51.646;15.140;2024-02-21T17:30:43;4;;;1;;
83801;SDS011;73818;51.646;15.140;2024-02-21T17:36:54;3;;;1;;
83801;SDS011;73818;51.646;15.140;2024-02-21T17:43:07;3;;;1;;
83801;SDS011;73818;51.646;15.140;2024-02-21T17:49:18;3;;;1;;
83801;SDS011;73818;51.646;15.140;2024-02-21T17:55:30;3;;;1;;
83801;SDS011;73818;51.646;15.140;2024-02-21T18:01:42;3;;;1;;
83801;SDS011;73818;51.646;15.140;2024-02-21T18:07:53;4;;;1;;
83801;SDS011;73818;51.646;15.140;2024-02-21T18:14:05;3;;;1;;
83801;SDS011;73818;51.646;15.140;2024-02-21T18:20:17;4;;;2;;
83801;SDS011;73818;51.646;15.140;2024-02-21T18:26:29;4;;;1;;
83801;SDS011;73818;51.646;15.140;2024-02-21T18:32:41;4;;;1;;
83801;SDS011;73818;51.646;15.140;2024-02-21T18:38:52;4;;;2;;
83801;SDS011;73818;51.646;15.140;2024-02-21T18:45:05;4;;;2;;
83801;SDS011;73818;51.646;15.140;2024-02-21T18:51:16;4;;;2;;
83801;SDS011;73818;51.646;15.140;2024-02-21T18:57:27;3;;;2;;
83801;SDS011;73818;51.646;15.140;2024-02-21T19:03:39;3;;;1;;
83801;SDS011;73818;51.646;15.140;2024-02-21T19:09:51;4;;;2;;
83801;SDS011;73818;51.646;15.140;2024-02-21T19:16:02;5;;;2;;
83801;SDS011;73818;51.646;15.140;2024-02-21T19:22:13;4;;;2;;
83801;SDS011;73818;51.646;15.140;2024-02-21T19:31:31;4;;;2;;
83801;SDS011;73818;51.646;15.140;2024-02-21T19:37:43;3;;;2;;
83801;SDS011;73818;51.646;15.140;2024-02-21T19:43:56;4;;;2;;
83801;SDS011;73818;51.646;15.140;2024-02-21T19:50:08;4;;;2;;
83801;SDS011;73818;51.646;15.140;2024-02-21T19:56:19;4;;;2;;
83801;SDS011;73818;51.646;15.140;2024-02-21T20:02:30;3;;;2;;
83801;SDS011;73818;51.646;15.140;2024-02-21T20:08:41;4;;;2;;
83801;SDS011;73818;51.646;15.140;2024-02-21T20:14:53;3;;;2;;
83801;SDS011;73818;51.646;15.140;2024-02-21T20:21:04;3;;;2;;
83801;SDS011;73818;51.646;15.140;2024-02-21T20:27:16;4;;;2;;
83801;SDS011;73818;51.646;15.140;2024-02-21T20:33:28;4;;;2;;
83801;SDS011;73818;51.646;15.140;2024-02-21T20:39:39;4;;;2;;
83801;SDS011;73818;51.646;15.140;2024-02-21T20:45:51;4;;;3;;
83801;SDS011;73818;51.646;15.140;2024-02-21T20:52:03;5;;;2;;
83801;SDS011;73818;51.646;15.140;2024-02-21T20:58:14;5;;;3;;
83801;SDS011;73818;51.646;15.140;2024-02-21T21:04:26;5;;;3;;
83801;SDS011;73818;51.646;15.140;2024-02-21T21:10:37;5;;;3;;
83801;SDS011;73818;51.646;15.140;2024-02-21T21:16:49;5;;;3;;
83801;SDS011;73818;51.646;15.140;2024-02-21T21:23:01;5;;;3;;
83801;SDS011;73818;51.646;15.140;2024-02-21T21:29:18;5;;;3;;
83801;SDS011;73818;51.646;15.140;2024-02-21T21:35:24;5;;;3;;
83801;SDS011;73818;51.646;15.140;2024-02-21T21:41:37;6;;;3;;
83801;SDS011;73818;51.646;15.140;2024-02-21T21:47:48;7;;;4;;
83801;SDS011;73818;51.646;15.140;2024-02-21T21:54:00;8;;;3;;
83801;SDS011;73818;51.646;15.140;2024-02-21T22:00:11;7;;;3;;
83801;SDS011;73818;51.646;15.140;2024-02-21T22:06:23;7;;;4;;
83801;SDS011;73818;51.646;15.140;2024-02-21T22:12:35;7;;;3;;
83801;SDS011;73818;51.646;15.140;2024-02-21T22:18:46;7;;;4;;
83801;SDS011;73818;51.646;15.140;2024-02-21T22:24:58;7;;;4;;
83801;SDS011;73818;51.646;15.140;2024-02-21T22:31:12;7;;;4;;
83801;SDS011;73818;51.646;15.140;2024-02-21T22:37:21;8;;;4;;
83801;SDS011;73818;51.646;15.140;2024-02-21T22:43:32;7;;;4;;
83801;SDS011;73818;51.646;15.140;2024-02-21T22:49:43;6;;;4;;
83801;SDS011;73818;51.646;15.140;2024-02-21T22:55:55;7;;;4;;
83801;SDS011;73818;51.646;15.140;2024-02-21T23:02:07;6;;;3;;
83801;SDS011;73818;51.646;15.140;2024-02-21T23:08:18;7;;;4;;
83801;SDS011;73818;51.646;15.140;2024-02-21T23:14:30;7;;;4;;
83801;SDS011;73818;51.646;15.140;2024-02-21T23:20:42;7;;;4;;
83801;SDS011;73818;51.646;15.140;2024-02-21T23:26:54;7;;;4;;
83801;SDS011;73818;51.646;15.140;2024-02-21T23:33:06;7;;;4;;
83801;SDS011;73818;51.646;15.140;2024-02-21T23:39:17;7;;;4;;
83801;SDS011;73818;51.646;15.140;2024-02-21T23:45:28;7;;;4;;
83801;SDS011;73818;51.646;15.140;2024-02-21T23:51:40;7;;;4;;
83801;SDS011;73818;51.646;15.140;2024-02-21T23:57:51;6;;;4;;
